createdAt,value
2017-09-14T00:00:07.751Z,17.50
2017-09-14T00:02:42.385Z,17.50
2017-09-14T00:05:16.902Z,17.50
2017-09-14T00:07:52.215Z,17.40
2017-09-14T00:10:27.111Z,17.30
2017-09-14T00:13:01.871Z,17.40
2017-09-14T00:15:36.477Z,17.40
2017-09-14T00:18:11.811Z,17.30
2017-09-14T00:20:46.266Z,17.20
2017-09-14T00:23:21.037Z,17.20
2017-09-14T00:25:55.739Z,17.20
2017-09-14T00:28:30.491Z,17.20
2017-09-14T00:31:05.053Z,17.10
2017-09-14T00:33:39.735Z,17.20
2017-09-14T00:36:14.315Z,17.20
2017-09-14T00:38:48.763Z,17.20
2017-09-14T00:41:23.318Z,17.20
2017-09-14T00:43:57.787Z,17.20
2017-09-14T00:46:32.007Z,17.20
2017-09-14T00:49:06.632Z,17.10
2017-09-14T00:51:40.423Z,17.10
2017-09-14T00:54:14.904Z,17.10
2017-09-14T00:56:49.153Z,17.10
2017-09-14T00:59:23.782Z,17.10
2017-09-14T01:01:58.341Z,17.00
2017-09-14T01:04:32.899Z,17.00
2017-09-14T01:07:07.558Z,17.00
2017-09-14T01:09:42.228Z,16.90
2017-09-14T01:12:16.855Z,16.90
2017-09-14T01:14:51.507Z,16.80
2017-09-14T01:17:25.802Z,16.80
2017-09-14T01:20:00.103Z,16.80
2017-09-14T01:22:34.587Z,16.70
2017-09-14T01:25:15.350Z,16.50
2017-09-14T01:27:49.254Z,16.50
2017-09-14T01:30:23.873Z,16.40
2017-09-14T01:32:57.882Z,16.40
2017-09-14T01:35:32.571Z,16.40
2017-09-14T01:38:06.397Z,16.30
2017-09-14T01:40:40.294Z,16.20
2017-09-14T01:43:14.858Z,16.10
2017-09-14T01:45:49.401Z,16.10
2017-09-14T01:48:24.758Z,16.10
2017-09-14T01:50:59.254Z,16.10
2017-09-14T01:53:33.706Z,16.00
2017-09-14T01:56:08.286Z,16.00
2017-09-14T01:58:42.995Z,16.00
2017-09-14T02:01:17.575Z,16.00
2017-09-14T02:03:52.269Z,16.00
2017-09-14T02:06:26.839Z,15.90
2017-09-14T02:09:01.359Z,15.90
2017-09-14T02:11:36.702Z,15.70
2017-09-14T02:14:11.398Z,15.60
2017-09-14T02:16:45.918Z,15.70
2017-09-14T02:19:20.453Z,15.60
2017-09-14T02:21:54.987Z,15.60
2017-09-14T02:24:29.413Z,15.50
2017-09-14T02:27:03.934Z,15.60
2017-09-14T02:29:38.587Z,15.60
2017-09-14T02:32:13.310Z,15.50
2017-09-14T02:34:47.794Z,15.40
2017-09-14T02:37:22.155Z,15.40
2017-09-14T02:39:56.685Z,15.40
2017-09-14T02:42:31.218Z,15.30
2017-09-14T02:45:13.826Z,15.30
2017-09-14T02:47:48.410Z,15.30
2017-09-14T02:50:22.966Z,15.30
2017-09-14T02:52:57.304Z,15.20
2017-09-14T02:55:31.849Z,15.10
2017-09-14T02:58:06.487Z,15.10
2017-09-14T03:00:41.163Z,15.00
2017-09-14T03:03:15.983Z,15.00
2017-09-14T03:05:50.550Z,15.00
2017-09-14T03:08:25.082Z,14.90
2017-09-14T03:10:59.662Z,15.00
2017-09-14T03:13:34.304Z,15.00
2017-09-14T03:16:08.865Z,15.00
2017-09-14T03:18:43.382Z,15.00
2017-09-14T03:21:17.983Z,14.90
2017-09-14T03:23:52.478Z,15.00
2017-09-14T03:26:27.036Z,14.90
2017-09-14T03:29:01.726Z,14.90
2017-09-14T03:31:37.071Z,14.90
2017-09-14T03:34:11.645Z,14.90
2017-09-14T03:36:47.042Z,14.90
2017-09-14T03:39:21.501Z,14.80
2017-09-14T03:41:56.086Z,14.90
2017-09-14T03:44:30.706Z,14.90
2017-09-14T03:47:06.058Z,14.90
2017-09-14T03:49:40.498Z,14.90
2017-09-14T03:52:15.090Z,14.90
2017-09-14T03:54:49.617Z,14.90
2017-09-14T03:57:24.160Z,14.90
2017-09-14T03:59:58.450Z,14.90
2017-09-14T04:02:33.018Z,14.90
2017-09-14T04:05:15.298Z,15.00
2017-09-14T04:07:49.827Z,15.00
2017-09-14T04:10:24.463Z,14.80
2017-09-14T04:12:59.128Z,14.70
2017-09-14T04:15:33.811Z,14.60
2017-09-14T04:18:08.325Z,14.40
2017-09-14T04:20:42.975Z,14.40
2017-09-14T04:23:17.613Z,14.30
2017-09-14T04:25:51.963Z,14.30
2017-09-14T04:28:26.426Z,14.40
2017-09-14T04:31:01.034Z,14.30
2017-09-14T04:33:36.382Z,14.30
2017-09-14T04:36:11.002Z,14.20
2017-09-14T04:38:45.899Z,14.30
2017-09-14T04:41:20.730Z,14.30
2017-09-14T04:43:55.329Z,14.30
2017-09-14T04:46:29.827Z,14.30
2017-09-14T04:49:04.578Z,14.30
2017-09-14T04:51:39.055Z,14.20
2017-09-14T04:54:13.426Z,14.20
2017-09-14T04:56:47.831Z,14.20
2017-09-14T04:59:22.318Z,14.20
2017-09-14T05:01:56.986Z,14.30
2017-09-14T05:04:31.554Z,14.30
2017-09-14T05:07:06.122Z,14.40
2017-09-14T05:09:40.795Z,14.40
2017-09-14T05:12:15.327Z,14.40
2017-09-14T05:14:50.769Z,14.50
2017-09-14T05:17:25.595Z,14.40
2017-09-14T05:20:00.088Z,14.40
2017-09-14T05:22:35.205Z,14.50
2017-09-14T05:25:16.719Z,14.50
2017-09-14T05:27:51.468Z,14.50
2017-09-14T05:30:25.747Z,14.60
2017-09-14T05:33:00.419Z,14.70
2017-09-14T05:35:34.832Z,14.70
2017-09-14T05:38:09.534Z,14.70
2017-09-14T05:40:44.066Z,14.70
2017-09-14T05:43:18.747Z,14.80
2017-09-14T05:45:53.357Z,14.80
2017-09-14T05:48:28.234Z,14.80
2017-09-14T05:51:02.876Z,14.90
2017-09-14T05:53:37.405Z,15.00
2017-09-14T05:56:11.930Z,15.10
2017-09-14T05:58:47.129Z,15.00
2017-09-14T06:01:22.438Z,15.00
2017-09-14T06:03:57.089Z,15.10
2017-09-14T06:06:31.626Z,15.30
2017-09-14T06:09:05.978Z,15.30
2017-09-14T06:11:40.665Z,15.40
2017-09-14T06:14:15.895Z,15.60
2017-09-14T06:16:50.366Z,15.50
2017-09-14T06:19:24.995Z,15.60
2017-09-14T06:21:59.643Z,15.70
2017-09-14T06:24:34.296Z,15.80
2017-09-14T06:27:08.801Z,15.80
2017-09-14T06:29:43.371Z,15.90
2017-09-14T06:32:17.994Z,16.10
2017-09-14T06:34:52.631Z,16.10
2017-09-14T06:37:27.149Z,16.20
2017-09-14T06:40:01.375Z,16.30
2017-09-14T06:42:35.825Z,16.50
2017-09-14T06:45:10.167Z,16.60
2017-09-14T06:47:44.830Z,16.70
2017-09-14T06:50:19.466Z,16.90
2017-09-14T06:52:53.939Z,17.20
2017-09-14T06:55:28.559Z,17.40
2017-09-14T06:58:03.221Z,17.70
2017-09-14T07:00:37.496Z,17.90
2017-09-14T07:03:12.018Z,18.30
2017-09-14T07:05:47.394Z,18.80
2017-09-14T07:08:21.959Z,18.80
2017-09-14T07:10:56.502Z,19.10
2017-09-14T07:13:31.114Z,19.40
2017-09-14T07:16:05.730Z,19.70
2017-09-14T07:18:40.307Z,19.90
2017-09-14T07:21:14.769Z,20.20
2017-09-14T07:23:49.486Z,20.40
2017-09-14T07:26:23.985Z,20.70
2017-09-14T07:28:58.685Z,21.00
2017-09-14T07:31:33.263Z,21.00
2017-09-14T07:34:07.770Z,21.40
2017-09-14T07:36:42.302Z,21.70
2017-09-14T07:39:16.892Z,22.10
2017-09-14T07:41:52.260Z,22.70
2017-09-14T07:44:26.862Z,22.60
2017-09-14T07:47:01.482Z,23.00
2017-09-14T07:49:36.774Z,23.60
2017-09-14T07:52:11.435Z,23.50
2017-09-14T07:54:46.002Z,23.90
2017-09-14T07:57:20.347Z,24.20
2017-09-14T07:59:55.003Z,24.40
2017-09-14T08:02:29.614Z,24.60
2017-09-14T08:05:08.510Z,24.80
2017-09-14T08:07:43.150Z,25.10
2017-09-14T08:10:17.778Z,25.40
2017-09-14T08:12:52.451Z,25.80
2017-09-14T08:15:27.831Z,26.50
2017-09-14T08:18:02.403Z,26.40
2017-09-14T08:20:37.110Z,27.30
2017-09-14T08:23:10.994Z,27.20
2017-09-14T08:25:45.483Z,27.60
2017-09-14T08:28:20.040Z,28.00
2017-09-14T08:30:54.567Z,28.40
2017-09-14T08:33:29.241Z,28.60
2017-09-14T08:36:04.046Z,28.80
2017-09-14T08:38:38.627Z,29.10
2017-09-14T08:41:13.178Z,29.30
2017-09-14T08:43:47.602Z,29.40
2017-09-14T08:46:22.058Z,29.60
2017-09-14T08:48:56.450Z,29.70
2017-09-14T08:51:30.780Z,29.90
2017-09-14T08:54:05.289Z,30.10
2017-09-14T08:56:39.890Z,30.40
2017-09-14T08:59:15.035Z,30.80
2017-09-14T09:01:50.066Z,31.40
2017-09-14T09:04:24.682Z,31.30
2017-09-14T09:06:59.339Z,31.70
2017-09-14T09:09:34.009Z,32.10
2017-09-14T09:12:08.550Z,32.60
2017-09-14T09:14:43.206Z,33.20
2017-09-14T09:17:17.710Z,33.90
2017-09-14T09:19:52.238Z,34.50
2017-09-14T09:22:26.743Z,35.20
2017-09-14T09:25:01.420Z,35.70
2017-09-14T09:27:36.689Z,36.20
2017-09-14T09:30:11.460Z,36.10
2017-09-14T09:32:46.203Z,36.40
2017-09-14T09:35:20.828Z,37.00
2017-09-14T09:37:55.443Z,37.40
2017-09-14T09:40:30.023Z,37.40
2017-09-14T09:43:04.689Z,37.60
2017-09-14T09:45:39.245Z,38.00
2017-09-14T09:48:13.902Z,38.10
2017-09-14T09:50:48.490Z,38.30
2017-09-14T09:53:22.982Z,38.30
2017-09-14T09:55:57.502Z,38.40
2017-09-14T09:58:33.256Z,38.30
2017-09-14T10:01:08.372Z,38.30
2017-09-14T10:03:42.934Z,38.30
2017-09-14T10:06:17.430Z,38.10
2017-09-14T10:08:51.985Z,37.90
2017-09-14T10:11:26.642Z,37.80
2017-09-14T10:14:01.326Z,37.70
2017-09-14T10:16:35.817Z,37.80
2017-09-14T10:19:10.239Z,37.90
2017-09-14T10:21:44.826Z,37.90
2017-09-14T10:24:20.173Z,37.90
2017-09-14T10:26:54.811Z,37.80
2017-09-14T10:29:29.401Z,38.00
2017-09-14T10:32:04.640Z,38.00
2017-09-14T10:34:39.202Z,38.00
2017-09-14T10:37:13.659Z,37.70
2017-09-14T10:39:48.269Z,37.10
2017-09-14T10:42:23.099Z,37.00
2017-09-14T10:44:57.586Z,37.30
2017-09-14T10:47:32.123Z,37.60
2017-09-14T10:50:09.707Z,37.80
2017-09-14T10:52:44.333Z,37.80
2017-09-14T10:55:19.732Z,37.80
2017-09-14T10:57:54.257Z,37.80
2017-09-14T11:00:28.795Z,37.80
2017-09-14T11:03:03.425Z,37.80
2017-09-14T11:05:37.990Z,37.90
2017-09-14T11:08:12.646Z,37.60
2017-09-14T11:10:47.233Z,37.70
2017-09-14T11:13:21.903Z,37.70
2017-09-14T11:15:56.257Z,37.70
2017-09-14T11:18:30.762Z,37.90
2017-09-14T11:21:05.315Z,38.20
2017-09-14T11:23:39.971Z,38.30
2017-09-14T11:26:14.460Z,38.20
2017-09-14T11:28:49.136Z,38.00
2017-09-14T11:31:23.801Z,37.90
2017-09-14T11:33:58.454Z,38.10
2017-09-14T11:36:32.933Z,38.30
2017-09-14T11:39:07.567Z,38.50
2017-09-14T11:41:42.078Z,38.50
2017-09-14T11:44:16.554Z,38.50
2017-09-14T11:46:51.211Z,38.20
2017-09-14T11:49:26.477Z,38.00
2017-09-14T11:52:01.030Z,37.90
2017-09-14T11:54:35.899Z,38.00
2017-09-14T11:57:10.433Z,38.00
2017-09-14T11:59:45.036Z,37.90
2017-09-14T12:02:19.663Z,37.60
2017-09-14T12:04:54.213Z,37.30
2017-09-14T12:07:28.740Z,36.90
2017-09-14T12:12:43.847Z,36.60
2017-09-14T12:15:18.476Z,36.50
2017-09-14T12:17:52.972Z,36.00
2017-09-14T12:20:27.463Z,36.10
2017-09-14T12:23:02.109Z,36.10
2017-09-14T12:25:36.610Z,36.10
2017-09-14T12:28:11.482Z,36.20
2017-09-14T12:30:46.199Z,36.20
2017-09-14T12:33:20.895Z,36.30
2017-09-14T12:35:55.373Z,36.30
2017-09-14T12:38:30.037Z,35.90
2017-09-14T12:41:04.853Z,35.00
2017-09-14T12:43:40.105Z,35.40
2017-09-14T12:46:14.643Z,35.40
2017-09-14T12:48:49.299Z,35.40
2017-09-14T12:51:23.840Z,35.20
2017-09-14T12:53:58.470Z,35.20
2017-09-14T12:56:33.014Z,35.00
2017-09-14T12:59:07.697Z,35.00
2017-09-14T13:01:42.411Z,35.00
2017-09-14T13:04:17.861Z,34.90
2017-09-14T13:06:52.470Z,34.80
2017-09-14T13:09:27.078Z,34.90
2017-09-14T13:12:01.767Z,35.00
2017-09-14T13:14:36.381Z,34.80
2017-09-14T13:17:10.802Z,34.70
2017-09-14T13:19:45.179Z,34.70
2017-09-14T13:22:20.006Z,34.70
2017-09-14T13:24:54.624Z,34.80
2017-09-14T13:27:29.034Z,35.10
2017-09-14T13:30:10.030Z,35.40
2017-09-14T13:32:44.688Z,35.40
2017-09-14T13:35:19.338Z,35.50
2017-09-14T13:37:53.694Z,35.40
2017-09-14T13:40:28.347Z,35.30
2017-09-14T13:43:02.777Z,35.30
2017-09-14T13:45:37.254Z,35.20
2017-09-14T13:48:11.831Z,34.80
2017-09-14T13:50:46.374Z,34.40
2017-09-14T13:53:21.027Z,34.10
2017-09-14T13:55:55.531Z,33.60
2017-09-14T13:58:30.211Z,33.10
2017-09-14T14:01:04.088Z,32.80
2017-09-14T14:03:38.739Z,32.50
2017-09-14T14:06:12.999Z,32.20
2017-09-14T14:08:47.559Z,31.00
2017-09-14T14:11:21.795Z,30.90
2017-09-14T14:13:55.989Z,30.80
2017-09-14T14:16:30.610Z,30.10
2017-09-14T14:19:05.250Z,29.20
2017-09-14T14:21:39.806Z,28.50
2017-09-14T14:24:15.111Z,26.70
2017-09-14T14:26:50.008Z,26.50
2017-09-14T14:29:24.684Z,25.80
2017-09-14T14:31:59.194Z,25.30
2017-09-14T14:34:34.414Z,24.20
2017-09-14T14:37:09.089Z,24.00
2017-09-14T14:39:43.982Z,23.50
2017-09-14T14:42:18.746Z,23.40
2017-09-14T14:44:53.612Z,23.00
2017-09-14T14:47:28.227Z,22.80
2017-09-14T14:50:07.614Z,22.50
2017-09-14T14:52:42.067Z,22.30
2017-09-14T14:55:16.779Z,22.10
2017-09-14T14:57:51.468Z,21.80
2017-09-14T15:00:25.802Z,21.60
2017-09-14T15:03:00.299Z,21.30
2017-09-14T15:05:35.027Z,21.20
2017-09-14T15:08:09.635Z,20.90
2017-09-14T15:10:44.344Z,20.80
2017-09-14T15:13:18.918Z,20.50
2017-09-14T15:15:54.165Z,20.10
2017-09-14T15:18:28.869Z,20.10
2017-09-14T15:21:03.363Z,20.00
2017-09-14T15:23:37.656Z,19.90
2017-09-14T15:26:12.057Z,19.70
2017-09-14T15:28:46.449Z,19.50
2017-09-14T15:31:20.785Z,19.30
2017-09-14T15:33:55.367Z,19.20
2017-09-14T15:36:30.461Z,19.00
2017-09-14T15:39:09.715Z,19.00
2017-09-14T15:41:44.948Z,18.70
2017-09-14T15:47:24.422Z,18.50
2017-09-14T15:50:04.636Z,18.30
2017-09-14T15:52:42.506Z,18.20
2017-09-14T15:55:17.010Z,18.10
2017-09-14T15:57:51.477Z,17.90
2017-09-14T16:00:26.019Z,17.80
2017-09-14T16:03:00.641Z,17.60
2017-09-14T16:05:35.294Z,17.40
2017-09-14T16:08:10.708Z,17.10
2017-09-14T16:10:45.188Z,17.00
2017-09-14T16:13:19.526Z,16.90
2017-09-14T16:15:54.100Z,16.80
2017-09-14T16:18:28.682Z,16.70
2017-09-14T16:21:03.268Z,16.60
2017-09-14T16:23:37.730Z,16.50
2017-09-14T16:26:12.287Z,16.40
2017-09-14T16:28:47.387Z,16.30
2017-09-14T16:31:22.023Z,16.30
2017-09-14T16:33:56.633Z,16.20
2017-09-14T16:36:31.203Z,16.10
2017-09-14T16:39:05.563Z,16.10
2017-09-14T16:41:40.018Z,16.10
2017-09-14T16:44:14.464Z,16.00
2017-09-14T16:46:49.126Z,16.00
2017-09-14T16:49:23.786Z,15.90
2017-09-14T16:51:58.375Z,15.90
2017-09-14T16:54:33.090Z,15.90
2017-09-14T16:57:07.575Z,15.80
2017-09-14T16:59:42.225Z,15.80
2017-09-14T17:02:16.810Z,15.70
2017-09-14T17:04:51.515Z,15.70
2017-09-14T17:07:25.967Z,15.70
2017-09-14T17:10:00.625Z,15.60
2017-09-14T17:12:35.110Z,15.50
2017-09-14T17:15:09.697Z,15.40
2017-09-14T17:17:44.234Z,15.40
2017-09-14T17:20:18.785Z,15.40
2017-09-14T17:22:53.375Z,15.40
2017-09-14T17:25:28.139Z,15.20
2017-09-14T17:28:02.858Z,15.20
2017-09-14T17:30:38.141Z,15.10
2017-09-14T17:33:12.787Z,15.10
2017-09-14T17:35:47.766Z,15.00
2017-09-14T17:38:23.132Z,14.90
2017-09-14T17:40:57.549Z,14.90
2017-09-14T17:43:32.190Z,14.90
2017-09-14T17:46:06.838Z,14.90
2017-09-14T17:48:41.622Z,15.00
2017-09-14T17:51:16.137Z,15.10
2017-09-14T17:53:50.664Z,15.00
2017-09-14T17:56:25.150Z,15.00
2017-09-14T17:58:59.662Z,15.00
2017-09-14T18:01:34.966Z,15.10
2017-09-14T18:04:09.568Z,15.00
2017-09-14T18:06:44.405Z,15.10
2017-09-14T18:09:19.807Z,15.10
2017-09-14T18:11:54.243Z,15.10
2017-09-14T18:14:28.693Z,14.50
2017-09-14T18:17:03.216Z,15.10
2017-09-14T18:19:38.022Z,15.10
2017-09-14T18:22:12.570Z,15.10
2017-09-14T18:24:47.027Z,15.10
2017-09-14T18:27:21.617Z,15.10
2017-09-14T18:29:56.199Z,15.10
2017-09-14T18:32:30.912Z,15.10
2017-09-14T18:35:07.566Z,15.10
2017-09-14T18:37:42.124Z,15.10
2017-09-14T18:40:16.566Z,15.00
2017-09-14T18:42:51.157Z,15.00
2017-09-14T18:45:26.017Z,15.00
2017-09-14T18:48:00.859Z,15.00
2017-09-14T18:50:35.400Z,15.10
2017-09-14T18:53:09.986Z,15.10
2017-09-14T18:55:44.780Z,15.00
2017-09-14T18:58:19.454Z,15.00
2017-09-14T19:00:54.051Z,15.10
2017-09-14T19:03:29.414Z,15.10
2017-09-14T19:06:03.928Z,15.00
2017-09-14T19:08:38.543Z,15.10
2017-09-14T19:11:13.184Z,15.00
2017-09-14T19:13:47.774Z,15.10
2017-09-14T19:16:22.482Z,15.10
2017-09-14T19:18:57.226Z,15.10
2017-09-14T19:21:31.833Z,15.10
2017-09-14T19:24:06.255Z,15.10
2017-09-14T19:26:40.835Z,15.10
2017-09-14T19:29:15.416Z,15.20
2017-09-14T19:31:50.239Z,15.10
2017-09-14T19:34:24.816Z,15.10
2017-09-14T19:36:59.424Z,15.10
2017-09-14T19:39:33.939Z,15.10
2017-09-14T19:42:08.635Z,15.10
2017-09-14T19:44:43.426Z,15.10
2017-09-14T19:47:18.039Z,15.10
2017-09-14T19:49:53.273Z,15.10
2017-09-14T19:52:28.009Z,15.00
2017-09-14T19:55:02.651Z,15.00
2017-09-14T19:57:37.254Z,15.10
2017-09-14T20:00:11.863Z,15.00
2017-09-14T20:02:46.491Z,15.00
2017-09-14T20:05:21.061Z,15.00
2017-09-14T20:07:55.709Z,15.10
2017-09-14T20:10:30.322Z,15.00
2017-09-14T20:13:05.114Z,15.00
2017-09-14T20:15:39.426Z,15.00
2017-09-14T20:18:13.999Z,15.00
2017-09-14T20:20:48.550Z,14.90
2017-09-14T20:23:23.096Z,14.90
2017-09-14T20:25:57.550Z,14.90
2017-09-14T20:28:32.244Z,14.90
2017-09-14T20:31:06.937Z,14.80
2017-09-14T20:33:42.310Z,14.80
2017-09-14T20:36:17.009Z,14.70
2017-09-14T20:38:51.786Z,14.80
2017-09-14T20:41:26.359Z,14.70
2017-09-14T20:44:00.827Z,14.80
2017-09-14T20:46:35.468Z,14.80
2017-09-14T20:49:10.137Z,14.80
2017-09-14T20:51:44.747Z,14.80
2017-09-14T20:54:19.429Z,14.80
2017-09-14T20:56:55.381Z,14.70
2017-09-14T20:59:29.902Z,14.80
2017-09-14T21:02:04.464Z,14.90
2017-09-14T21:04:38.950Z,14.90
2017-09-14T21:07:13.994Z,15.00
2017-09-14T21:09:48.580Z,14.90
2017-09-14T21:12:23.206Z,15.00
2017-09-14T21:14:57.688Z,15.00
2017-09-14T21:17:32.247Z,15.00
2017-09-14T21:20:10.127Z,15.10
2017-09-14T21:22:44.600Z,15.20
2017-09-14T21:25:19.394Z,15.10
2017-09-14T21:27:54.050Z,15.10
2017-09-14T21:30:28.571Z,15.10
2017-09-14T21:33:03.131Z,15.10
2017-09-14T21:35:37.618Z,15.10
2017-09-14T21:38:12.131Z,15.10
2017-09-14T21:40:46.671Z,15.20
2017-09-14T21:43:21.340Z,15.20
2017-09-14T21:45:56.162Z,15.20
2017-09-14T21:48:30.738Z,15.20
2017-09-14T21:51:05.262Z,15.20
2017-09-14T21:53:40.923Z,15.30
2017-09-14T21:56:15.631Z,15.30
2017-09-14T21:58:50.116Z,15.30
2017-09-14T22:01:24.723Z,15.30
2017-09-14T22:03:59.616Z,15.30
2017-09-14T22:06:34.270Z,15.30
2017-09-14T22:09:08.930Z,15.30
2017-09-14T22:11:43.430Z,15.30
2017-09-14T22:14:18.001Z,15.30
2017-09-14T22:16:52.675Z,15.30
2017-09-14T22:19:27.323Z,15.30
2017-09-14T22:22:02.927Z,15.30
2017-09-14T22:24:38.218Z,15.30
2017-09-14T22:27:12.843Z,15.20
2017-09-14T22:29:47.579Z,15.30
2017-09-14T22:32:22.315Z,15.30
2017-09-14T22:34:56.933Z,15.30
2017-09-14T22:37:31.585Z,15.30
2017-09-14T22:40:09.899Z,15.30
2017-09-14T22:42:44.543Z,15.30
2017-09-14T22:45:19.132Z,15.20
2017-09-14T22:47:53.622Z,15.20
2017-09-14T22:50:28.299Z,15.30
2017-09-14T22:53:02.927Z,15.20
2017-09-14T22:55:38.315Z,15.10
2017-09-14T22:58:12.934Z,15.10
2017-09-14T23:00:47.497Z,15.10
2017-09-14T23:03:22.138Z,15.10
2017-09-14T23:05:56.475Z,15.10
2017-09-14T23:08:31.168Z,15.10
2017-09-14T23:11:05.806Z,15.00
2017-09-14T23:13:41.231Z,15.00
2017-09-14T23:16:15.926Z,15.00
2017-09-14T23:18:50.695Z,15.00
2017-09-14T23:21:25.302Z,15.00
2017-09-14T23:23:59.719Z,15.00
2017-09-14T23:26:34.320Z,15.00
2017-09-14T23:29:08.787Z,15.00
2017-09-14T23:31:43.616Z,15.00
2017-09-14T23:34:18.487Z,15.00
2017-09-14T23:36:52.928Z,15.00
2017-09-14T23:39:27.639Z,15.00
2017-09-14T23:42:02.232Z,15.00
2017-09-14T23:44:36.864Z,15.00
2017-09-14T23:47:11.439Z,15.00
2017-09-14T23:49:46.047Z,15.00
2017-09-14T23:52:20.591Z,15.00
2017-09-14T23:54:55.056Z,15.00
2017-09-14T23:57:29.658Z,15.00
